LFQH weather

Châtillon Sur Seine Airfield
Bourgogne-Franche-Comté, France

Public forecast

Using degrees Celsius for public forecast. Weather courtesy of forecast.io.

Closest aviation weather report (METAR) to Châtillon Sur Seine Airfield

Closest report is Troyes-Barberey Airport, 36.5 nm (67.7 km) NW. Retrieved 2020/08/04 01:30 UTC (16 minutes ago):

LFQB 040130Z AUTO 30008KT CAVOK 12/11 Q1016

Closest aviation forecast (TAF) to Châtillon Sur Seine Airfield

Forecast is more than 12 hours old.

Closest forecast is Dijon-Bourgogne Airport, 40.2 nm (74.5 km) SSE. Retrieved 2015/06/01 00:11 UTC (5 years ago):

TAF LFSD 010600Z 0100/0124 CNL